sensor_id;sensor_type;location;lat;lon;timestamp;P1;durP1;ratioP1;P2;durP2;ratioP2
9508;SDS011;4792;50.088;8.122;2023-08-01T00:00:35;6.27;;;3.97;;
9508;SDS011;4792;50.088;8.122;2023-08-01T00:03:04;199.80;;;12.33;;
9508;SDS011;4792;50.088;8.122;2023-08-01T00:05:32;3.87;;;3.00;;
9508;SDS011;4792;50.088;8.122;2023-08-01T00:08:00;46.67;;;4.67;;
9508;SDS011;4792;50.088;8.122;2023-08-01T00:10:28;267.77;;;12.83;;
9508;SDS011;4792;50.088;8.122;2023-08-01T00:12:56;6.63;;;3.10;;
9508;SDS011;4792;50.088;8.122;2023-08-01T00:15:24;46.67;;;5.30;;
9508;SDS011;4792;50.088;8.122;2023-08-01T00:17:51;14.57;;;4.00;;
9508;SDS011;4792;50.088;8.122;2023-08-01T00:20:20;45.87;;;6.03;;
9508;SDS011;4792;50.088;8.122;2023-08-01T00:22:48;513.23;;;22.87;;
9508;SDS011;4792;50.088;8.122;2023-08-01T00:25:16;378.13;;;19.20;;
9508;SDS011;4792;50.088;8.122;2023-08-01T00:27:44;56.70;;;6.53;;
9508;SDS011;4792;50.088;8.122;2023-08-01T00:30:12;56.83;;;6.53;;
9508;SDS011;4792;50.088;8.122;2023-08-01T00:32:39;33.63;;;5.30;;
9508;SDS011;4792;50.088;8.122;2023-08-01T00:35:07;213.43;;;11.17;;
9508;SDS011;4792;50.088;8.122;2023-08-01T00:37:36;163.03;;;10.47;;
9508;SDS011;4792;50.088;8.122;2023-08-01T00:40:05;69.40;;;8.50;;
9508;SDS011;4792;50.088;8.122;2023-08-01T00:42:35;28.10;;;6.60;;
9508;SDS011;4792;50.088;8.122;2023-08-01T00:45:04;115.83;;;8.23;;
9508;SDS011;4792;50.088;8.122;2023-08-01T00:47:32;43.47;;;5.77;;
9508;SDS011;4792;50.088;8.122;2023-08-01T00:50:00;52.03;;;6.03;;
9508;SDS011;4792;50.088;8.122;2023-08-01T00:52:28;335.30;;;20.10;;
9508;SDS011;4792;50.088;8.122;2023-08-01T00:54:57;8.10;;;3.73;;
9508;SDS011;4792;50.088;8.122;2023-08-01T00:57:25;7.13;;;3.63;;
9508;SDS011;4792;50.088;8.122;2023-08-01T00:59:52;23.67;;;4.13;;
9508;SDS011;4792;50.088;8.122;2023-08-01T01:02:20;3.17;;;2.80;;
9508;SDS011;4792;50.088;8.122;2023-08-01T01:04:48;120.70;;;7.77;;
9508;SDS011;4792;50.088;8.122;2023-08-01T01:07:15;405.23;;;19.80;;
9508;SDS011;4792;50.088;8.122;2023-08-01T01:09:44;137.47;;;8.87;;
9508;SDS011;4792;50.088;8.122;2023-08-01T01:12:13;474.67;;;22.70;;
9508;SDS011;4792;50.088;8.122;2023-08-01T01:14:40;573.07;;;23.70;;
9508;SDS011;4792;50.088;8.122;2023-08-01T01:17:08;198.23;;;11.63;;
9508;SDS011;4792;50.088;8.122;2023-08-01T01:19:36;86.93;;;8.33;;
9508;SDS011;4792;50.088;8.122;2023-08-01T01:22:05;273.00;;;16.53;;
9508;SDS011;4792;50.088;8.122;2023-08-01T01:24:34;480.97;;;24.47;;
9508;SDS011;4792;50.088;8.122;2023-08-01T01:27:03;346.97;;;17.47;;
9508;SDS011;4792;50.088;8.122;2023-08-01T01:29:31;605.43;;;26.53;;
9508;SDS011;4792;50.088;8.122;2023-08-01T01:32:00;268.37;;;14.50;;
9508;SDS011;4792;50.088;8.122;2023-08-01T01:34:28;474.30;;;25.60;;
9508;SDS011;4792;50.088;8.122;2023-08-01T01:36:56;942.67;;;44.33;;
9508;SDS011;4792;50.088;8.122;2023-08-01T01:39:25;417.60;;;21.40;;
9508;SDS011;4792;50.088;8.122;2023-08-01T01:41:52;141.47;;;9.60;;
9508;SDS011;4792;50.088;8.122;2023-08-01T01:44:20;39.60;;;6.70;;
9508;SDS011;4792;50.088;8.122;2023-08-01T01:46:48;674.00;;;28.80;;
9508;SDS011;4792;50.088;8.122;2023-08-01T01:49:16;662.63;;;32.23;;
9508;SDS011;4792;50.088;8.122;2023-08-01T01:51:43;139.87;;;11.03;;
9508;SDS011;4792;50.088;8.122;2023-08-01T01:54:11;924.20;;;40.77;;
9508;SDS011;4792;50.088;8.122;2023-08-01T01:56:40;108.27;;;9.43;;
9508;SDS011;4792;50.088;8.122;2023-08-01T01:59:08;535.17;;;23.47;;
9508;SDS011;4792;50.088;8.122;2023-08-01T02:01:35;156.27;;;10.73;;
9508;SDS011;4792;50.088;8.122;2023-08-01T02:04:03;175.80;;;11.07;;
9508;SDS011;4792;50.088;8.122;2023-08-01T02:06:31;972.00;;;39.40;;
9508;SDS011;4792;50.088;8.122;2023-08-01T02:08:58;199.87;;;13.83;;
9508;SDS011;4792;50.088;8.122;2023-08-01T02:11:27;1192.33;;;50.63;;
9508;SDS011;4792;50.088;8.122;2023-08-01T02:13:56;299.77;;;17.17;;
9508;SDS011;4792;50.088;8.122;2023-08-01T02:16:24;32.57;;;7.60;;
9508;SDS011;4792;50.088;8.122;2023-08-01T02:18:51;32.90;;;6.93;;
9508;SDS011;4792;50.088;8.122;2023-08-01T02:21:19;118.17;;;11.43;;
9508;SDS011;4792;50.088;8.122;2023-08-01T02:23:47;188.47;;;14.20;;
9508;SDS011;4792;50.088;8.122;2023-08-01T02:26:14;542.33;;;30.57;;
9508;SDS011;4792;50.088;8.122;2023-08-01T02:28:42;125.33;;;11.83;;
9508;SDS011;4792;50.088;8.122;2023-08-01T02:31:11;9.47;;;5.50;;
9508;SDS011;4792;50.088;8.122;2023-08-01T02:33:38;303.33;;;17.23;;
9508;SDS011;4792;50.088;8.122;2023-08-01T02:36:06;334.67;;;18.40;;
9508;SDS011;4792;50.088;8.122;2023-08-01T02:38:34;16.67;;;6.80;;
9508;SDS011;4792;50.088;8.122;2023-08-01T02:41:01;21.93;;;6.70;;
9508;SDS011;4792;50.088;8.122;2023-08-01T02:43:29;14.27;;;6.20;;
9508;SDS011;4792;50.088;8.122;2023-08-01T02:45:56;20.20;;;6.47;;
9508;SDS011;4792;50.088;8.122;2023-08-01T02:48:27;58.07;;;8.80;;
9508;SDS011;4792;50.088;8.122;2023-08-01T02:50:55;9.23;;;6.33;;
9508;SDS011;4792;50.088;8.122;2023-08-01T02:53:23;10.00;;;5.87;;
9508;SDS011;4792;50.088;8.122;2023-08-01T02:55:50;138.53;;;13.73;;
9508;SDS011;4792;50.088;8.122;2023-08-01T02:58:18;9.47;;;5.27;;
9508;SDS011;4792;50.088;8.122;2023-08-01T03:00:46;10.27;;;5.57;;
9508;SDS011;4792;50.088;8.122;2023-08-01T03:03:14;8.40;;;5.60;;
9508;SDS011;4792;50.088;8.122;2023-08-01T03:05:43;10.10;;;5.50;;
9508;SDS011;4792;50.088;8.122;2023-08-01T03:08:10;9.47;;;5.00;;
9508;SDS011;4792;50.088;8.122;2023-08-01T03:10:39;14.53;;;5.80;;
9508;SDS011;4792;50.088;8.122;2023-08-01T03:13:06;264.17;;;17.30;;
9508;SDS011;4792;50.088;8.122;2023-08-01T03:15:34;125.73;;;10.67;;
9508;SDS011;4792;50.088;8.122;2023-08-01T03:18:02;7.40;;;5.03;;
9508;SDS011;4792;50.088;8.122;2023-08-01T03:20:30;19.90;;;5.43;;
9508;SDS011;4792;50.088;8.122;2023-08-01T03:22:59;284.80;;;16.70;;
9508;SDS011;4792;50.088;8.122;2023-08-01T03:25:27;7.20;;;4.30;;
9508;SDS011;4792;50.088;8.122;2023-08-01T03:27:54;3.93;;;3.17;;
9508;SDS011;4792;50.088;8.122;2023-08-01T03:30:23;4.17;;;3.23;;
9508;SDS011;4792;50.088;8.122;2023-08-01T03:32:51;4.90;;;2.90;;
9508;SDS011;4792;50.088;8.122;2023-08-01T03:35:18;4.70;;;3.43;;
9508;SDS011;4792;50.088;8.122;2023-08-01T03:37:46;5.33;;;3.37;;
9508;SDS011;4792;50.088;8.122;2023-08-01T03:40:15;6.20;;;3.23;;
9508;SDS011;4792;50.088;8.122;2023-08-01T03:42:43;3.77;;;3.00;;
9508;SDS011;4792;50.088;8.122;2023-08-01T03:45:10;4.83;;;3.33;;
9508;SDS011;4792;50.088;8.122;2023-08-01T03:47:38;4.07;;;3.13;;
9508;SDS011;4792;50.088;8.122;2023-08-01T03:50:06;13.70;;;3.80;;
9508;SDS011;4792;50.088;8.122;2023-08-01T03:52:34;102.07;;;8.67;;
9508;SDS011;4792;50.088;8.122;2023-08-01T03:55:02;76.30;;;6.97;;
9508;SDS011;4792;50.088;8.122;2023-08-01T03:57:31;178.63;;;10.97;;
9508;SDS011;4792;50.088;8.122;2023-08-01T04:00:00;67.43;;;6.30;;
9508;SDS011;4792;50.088;8.122;2023-08-01T04:02:29;4.80;;;3.13;;
9508;SDS011;4792;50.088;8.122;2023-08-01T04:04:56;171.07;;;9.87;;
9508;SDS011;4792;50.088;8.122;2023-08-01T04:07:24;296.87;;;14.77;;
9508;SDS011;4792;50.088;8.122;2023-08-01T04:09:52;37.33;;;3.53;;
9508;SDS011;4792;50.088;8.122;2023-08-01T04:12:20;171.97;;;9.60;;
9508;SDS011;4792;50.088;8.122;2023-08-01T04:14:49;73.63;;;6.17;;
9508;SDS011;4792;50.088;8.122;2023-08-01T04:17:16;16.83;;;2.90;;
9508;SDS011;4792;50.088;8.122;2023-08-01T04:19:44;432.27;;;18.90;;
9508;SDS011;4792;50.088;8.122;2023-08-01T04:22:12;115.07;;;7.00;;
9508;SDS011;4792;50.088;8.122;2023-08-01T04:24:39;376.67;;;15.77;;
9508;SDS011;4792;50.088;8.122;2023-08-01T04:27:07;180.60;;;9.47;;
9508;SDS011;4792;50.088;8.122;2023-08-01T04:29:35;12.87;;;3.70;;
9508;SDS011;4792;50.088;8.122;2023-08-01T04:32:04;215.27;;;12.80;;
9508;SDS011;4792;50.088;8.122;2023-08-01T04:34:32;23.17;;;3.90;;
9508;SDS011;4792;50.088;8.122;2023-08-01T04:37:00;828.10;;;35.83;;
9508;SDS011;4792;50.088;8.122;2023-08-01T04:39:27;617.43;;;28.73;;
9508;SDS011;4792;50.088;8.122;2023-08-01T04:41:55;300.93;;;16.30;;
9508;SDS011;4792;50.088;8.122;2023-08-01T04:44:22;322.13;;;18.57;;
9508;SDS011;4792;50.088;8.122;2023-08-01T04:46:50;808.60;;;35.80;;
9508;SDS011;4792;50.088;8.122;2023-08-01T04:49:19;1096.90;;;47.27;;
9508;SDS011;4792;50.088;8.122;2023-08-01T04:54:15;184.47;;;9.17;;
9508;SDS011;4792;50.088;8.122;2023-08-01T04:56:43;509.77;;;23.60;;
9508;SDS011;4792;50.088;8.122;2023-08-01T04:59:11;408.10;;;20.77;;
9508;SDS011;4792;50.088;8.122;2023-08-01T05:01:38;392.50;;;18.37;;
9508;SDS011;4792;50.088;8.122;2023-08-01T05:04:06;568.90;;;25.43;;
9508;SDS011;4792;50.088;8.122;2023-08-01T05:06:35;451.57;;;22.20;;
9508;SDS011;4792;50.088;8.122;2023-08-01T05:09:03;403.80;;;17.43;;
9508;SDS011;4792;50.088;8.122;2023-08-01T05:11:30;412.07;;;20.93;;
9508;SDS011;4792;50.088;8.122;2023-08-01T05:13:58;262.27;;;14.30;;
9508;SDS011;4792;50.088;8.122;2023-08-01T05:16:26;165.03;;;10.17;;
9508;SDS011;4792;50.088;8.122;2023-08-01T05:18:53;3.83;;;3.03;;
9508;SDS011;4792;50.088;8.122;2023-08-01T05:21:21;5.07;;;3.33;;
9508;SDS011;4792;50.088;8.122;2023-08-01T05:23:50;121.93;;;10.47;;
9508;SDS011;4792;50.088;8.122;2023-08-01T05:26:18;197.93;;;10.93;;
9508;SDS011;4792;50.088;8.122;2023-08-01T05:28:45;175.10;;;10.10;;
9508;SDS011;4792;50.088;8.122;2023-08-01T05:31:13;6.67;;;2.53;;
9508;SDS011;4792;50.088;8.122;2023-08-01T05:33:40;2.30;;;1.80;;
9508;SDS011;4792;50.088;8.122;2023-08-01T05:36:08;10.07;;;2.00;;
9508;SDS011;4792;50.088;8.122;2023-08-01T05:38:36;2.50;;;2.10;;
9508;SDS011;4792;50.088;8.122;2023-08-01T05:41:05;8.57;;;2.33;;
9508;SDS011;4792;50.088;8.122;2023-08-01T05:43:32;4.77;;;2.23;;
9508;SDS011;4792;50.088;8.122;2023-08-01T05:46:00;1.97;;;1.50;;
9508;SDS011;4792;50.088;8.122;2023-08-01T05:48:28;4.33;;;1.60;;
9508;SDS011;4792;50.088;8.122;2023-08-01T05:50:55;2.90;;;1.70;;
9508;SDS011;4792;50.088;8.122;2023-08-01T05:53:24;16.37;;;2.20;;
9508;SDS011;4792;50.088;8.122;2023-08-01T05:55:53;1.33;;;1.13;;
9508;SDS011;4792;50.088;8.122;2023-08-01T05:58:22;1.17;;;1.00;;
9508;SDS011;4792;50.088;8.122;2023-08-01T06:00:52;1.00;;;0.90;;
9508;SDS011;4792;50.088;8.122;2023-08-01T06:03:19;0.70;;;0.70;;
9508;SDS011;4792;50.088;8.122;2023-08-01T06:05:47;0.60;;;0.60;;
9508;SDS011;4792;50.088;8.122;2023-08-01T06:08:15;0.70;;;0.60;;
9508;SDS011;4792;50.088;8.122;2023-08-01T06:10:42;1.07;;;0.70;;
9508;SDS011;4792;50.088;8.122;2023-08-01T06:13:10;0.60;;;0.60;;
9508;SDS011;4792;50.088;8.122;2023-08-01T06:15:39;0.60;;;0.60;;
9508;SDS011;4792;50.088;8.122;2023-08-01T06:18:07;0.60;;;0.60;;
9508;SDS011;4792;50.088;8.122;2023-08-01T06:20:35;1.33;;;1.10;;
9508;SDS011;4792;50.088;8.122;2023-08-01T06:23:02;0.80;;;0.80;;
9508;SDS011;4792;50.088;8.122;2023-08-01T06:25:30;3.23;;;0.80;;
9508;SDS011;4792;50.088;8.122;2023-08-01T06:27:57;1.77;;;0.80;;
9508;SDS011;4792;50.088;8.122;2023-08-01T06:30:25;1.00;;;0.90;;
9508;SDS011;4792;50.088;8.122;2023-08-01T06:32:54;1.10;;;0.90;;
9508;SDS011;4792;50.088;8.122;2023-08-01T06:35:22;1.17;;;1.07;;
9508;SDS011;4792;50.088;8.122;2023-08-01T06:37:49;1.00;;;0.90;;
9508;SDS011;4792;50.088;8.122;2023-08-01T06:40:17;1.63;;;1.03;;
9508;SDS011;4792;50.088;8.122;2023-08-01T06:42:45;2.20;;;0.90;;
9508;SDS011;4792;50.088;8.122;2023-08-01T06:45:12;0.87;;;0.87;;
9508;SDS011;4792;50.088;8.122;2023-08-01T06:47:40;1.30;;;1.03;;
9508;SDS011;4792;50.088;8.122;2023-08-01T06:50:10;7.40;;;1.13;;
9508;SDS011;4792;50.088;8.122;2023-08-01T06:52:37;2.87;;;1.30;;
9508;SDS011;4792;50.088;8.122;2023-08-01T06:55:05;1.77;;;1.00;;
9508;SDS011;4792;50.088;8.122;2023-08-01T06:57:33;1.30;;;1.20;;
9508;SDS011;4792;50.088;8.122;2023-08-01T07:00:01;3.63;;;1.20;;
9508;SDS011;4792;50.088;8.122;2023-08-01T07:02:29;2.20;;;1.10;;
9508;SDS011;4792;50.088;8.122;2023-08-01T07:04:56;1.23;;;1.10;;
9508;SDS011;4792;50.088;8.122;2023-08-01T07:07:25;1.30;;;1.03;;
9508;SDS011;4792;50.088;8.122;2023-08-01T07:09:53;1.23;;;1.10;;
9508;SDS011;4792;50.088;8.122;2023-08-01T07:12:21;3.63;;;1.30;;
9508;SDS011;4792;50.088;8.122;2023-08-01T07:14:48;4.30;;;1.40;;
9508;SDS011;4792;50.088;8.122;2023-08-01T07:17:16;2.10;;;1.40;;
9508;SDS011;4792;50.088;8.122;2023-08-01T07:19:44;1.30;;;1.20;;
9508;SDS011;4792;50.088;8.122;2023-08-01T07:22:11;1.33;;;1.10;;
9508;SDS011;4792;50.088;8.122;2023-08-01T07:24:40;2.50;;;1.20;;
9508;SDS011;4792;50.088;8.122;2023-08-01T07:27:08;1.63;;;1.20;;
9508;SDS011;4792;50.088;8.122;2023-08-01T07:29:36;1.57;;;1.40;;
9508;SDS011;4792;50.088;8.122;2023-08-01T07:32:04;2.23;;;1.83;;
9508;SDS011;4792;50.088;8.122;2023-08-01T07:34:32;1.47;;;1.30;;
9508;SDS011;4792;50.088;8.122;2023-08-01T07:37:00;1.93;;;1.60;;
9508;SDS011;4792;50.088;8.122;2023-08-01T07:39:27;3.03;;;1.60;;
9508;SDS011;4792;50.088;8.122;2023-08-01T07:41:56;2.63;;;1.60;;
9508;SDS011;4792;50.088;8.122;2023-08-01T07:44:24;1.73;;;1.37;;
9508;SDS011;4792;50.088;8.122;2023-08-01T07:46:52;3.50;;;1.60;;
9508;SDS011;4792;50.088;8.122;2023-08-01T07:49:19;2.17;;;1.50;;
9508;SDS011;4792;50.088;8.122;2023-08-01T07:51:47;4.17;;;1.73;;
9508;SDS011;4792;50.088;8.122;2023-08-01T07:54:15;1.47;;;1.37;;
9508;SDS011;4792;50.088;8.122;2023-08-01T07:56:43;2.67;;;1.73;;
9508;SDS011;4792;50.088;8.122;2023-08-01T07:59:13;3.97;;;1.90;;
9508;SDS011;4792;50.088;8.122;2023-08-01T08:01:41;1.90;;;1.63;;
9508;SDS011;4792;50.088;8.122;2023-08-01T08:04:09;1.57;;;1.47;;
9508;SDS011;4792;50.088;8.122;2023-08-01T08:06:36;1.70;;;1.50;;
9508;SDS011;4792;50.088;8.122;2023-08-01T08:09:05;1.87;;;1.60;;
9508;SDS011;4792;50.088;8.122;2023-08-01T08:11:32;5.23;;;1.57;;
9508;SDS011;4792;50.088;8.122;2023-08-01T08:14:01;3.43;;;1.47;;
9508;SDS011;4792;50.088;8.122;2023-08-01T08:16:30;1.70;;;1.50;;
9508;SDS011;4792;50.088;8.122;2023-08-01T08:18:58;2.30;;;1.60;;
9508;SDS011;4792;50.088;8.122;2023-08-01T08:21:26;1.93;;;1.60;;
9508;SDS011;4792;50.088;8.122;2023-08-01T08:23:53;1.40;;;1.20;;
9508;SDS011;4792;50.088;8.122;2023-08-01T08:26:21;3.47;;;1.60;;
9508;SDS011;4792;50.088;8.122;2023-08-01T08:28:50;1.90;;;1.40;;
9508;SDS011;4792;50.088;8.122;2023-08-01T08:31:18;4.80;;;1.60;;
9508;SDS011;4792;50.088;8.122;2023-08-01T08:33:47;3.43;;;1.50;;
9508;SDS011;4792;50.088;8.122;2023-08-01T08:36:15;3.07;;;1.57;;
9508;SDS011;4792;50.088;8.122;2023-08-01T08:38:43;1.80;;;1.63;;
9508;SDS011;4792;50.088;8.122;2023-08-01T08:41:12;3.07;;;1.57;;
9508;SDS011;4792;50.088;8.122;2023-08-01T08:43:41;1.87;;;1.53;;
9508;SDS011;4792;50.088;8.122;2023-08-01T08:46:09;2.47;;;1.67;;
9508;SDS011;4792;50.088;8.122;2023-08-01T08:48:36;3.27;;;1.80;;
9508;SDS011;4792;50.088;8.122;2023-08-01T08:51:05;3.10;;;1.77;;
9508;SDS011;4792;50.088;8.122;2023-08-01T08:53:34;4.53;;;1.70;;
9508;SDS011;4792;50.088;8.122;2023-08-01T08:56:02;3.20;;;1.60;;
9508;SDS011;4792;50.088;8.122;2023-08-01T08:58:30;2.20;;;1.80;;
9508;SDS011;4792;50.088;8.122;2023-08-01T09:00:58;2.33;;;1.87;;
9508;SDS011;4792;50.088;8.122;2023-08-01T09:03:28;2.60;;;1.60;;
9508;SDS011;4792;50.088;8.122;2023-08-01T09:05:58;2.03;;;1.77;;
9508;SDS011;4792;50.088;8.122;2023-08-01T09:08:29;2.40;;;1.70;;
9508;SDS011;4792;50.088;8.122;2023-08-01T09:11:00;2.07;;;1.70;;
9508;SDS011;4792;50.088;8.122;2023-08-01T09:13:28;2.20;;;1.70;;
9508;SDS011;4792;50.088;8.122;2023-08-01T09:15:56;2.67;;;1.80;;
9508;SDS011;4792;50.088;8.122;2023-08-01T09:18:24;2.50;;;1.57;;
9508;SDS011;4792;50.088;8.122;2023-08-01T09:20:54;2.07;;;1.80;;
9508;SDS011;4792;50.088;8.122;2023-08-01T09:23:26;4.63;;;1.77;;
9508;SDS011;4792;50.088;8.122;2023-08-01T09:25:55;2.90;;;1.90;;
9508;SDS011;4792;50.088;8.122;2023-08-01T09:28:26;2.80;;;1.60;;
9508;SDS011;4792;50.088;8.122;2023-08-01T09:30:54;3.00;;;1.70;;
9508;SDS011;4792;50.088;8.122;2023-08-01T09:33:24;4.00;;;1.90;;
9508;SDS011;4792;50.088;8.122;2023-08-01T09:35:52;3.00;;;1.90;;
9508;SDS011;4792;50.088;8.122;2023-08-01T09:38:20;3.80;;;2.23;;
9508;SDS011;4792;50.088;8.122;2023-08-01T09:40:48;2.57;;;1.60;;
9508;SDS011;4792;50.088;8.122;2023-08-01T09:43:17;3.30;;;2.00;;
9508;SDS011;4792;50.088;8.122;2023-08-01T09:45:51;3.37;;;2.20;;
9508;SDS011;4792;50.088;8.122;2023-08-01T09:48:23;3.70;;;1.80;;
9508;SDS011;4792;50.088;8.122;2023-08-01T09:51:03;2.47;;;1.90;;
9508;SDS011;4792;50.088;8.122;2023-08-01T09:53:33;3.87;;;1.90;;
9508;SDS011;4792;50.088;8.122;2023-08-01T09:56:01;3.67;;;1.90;;
9508;SDS011;4792;50.088;8.122;2023-08-01T09:58:32;3.40;;;2.00;;
9508;SDS011;4792;50.088;8.122;2023-08-01T10:01:01;4.17;;;1.80;;
9508;SDS011;4792;50.088;8.122;2023-08-01T10:03:28;2.57;;;1.80;;
9508;SDS011;4792;50.088;8.122;2023-08-01T10:05:57;3.00;;;1.80;;
9508;SDS011;4792;50.088;8.122;2023-08-01T10:08:25;3.13;;;1.80;;
9508;SDS011;4792;50.088;8.122;2023-08-01T10:10:54;3.80;;;2.00;;
9508;SDS011;4792;50.088;8.122;2023-08-01T10:13:23;3.40;;;1.93;;
9508;SDS011;4792;50.088;8.122;2023-08-01T10:15:52;3.07;;;1.77;;
9508;SDS011;4792;50.088;8.122;2023-08-01T10:18:21;4.00;;;1.90;;
9508;SDS011;4792;50.088;8.122;2023-08-01T10:20:49;3.70;;;2.60;;
9508;SDS011;4792;50.088;8.122;2023-08-01T10:23:17;3.13;;;1.70;;
9508;SDS011;4792;50.088;8.122;2023-08-01T10:25:46;2.93;;;1.90;;
9508;SDS011;4792;50.088;8.122;2023-08-01T10:28:14;4.50;;;1.80;;
9508;SDS011;4792;50.088;8.122;2023-08-01T10:30:42;1.87;;;1.63;;
9508;SDS011;4792;50.088;8.122;2023-08-01T10:33:11;2.67;;;1.60;;
9508;SDS011;4792;50.088;8.122;2023-08-01T10:35:40;3.10;;;1.83;;
9508;SDS011;4792;50.088;8.122;2023-08-01T10:38:11;3.93;;;2.00;;
9508;SDS011;4792;50.088;8.122;2023-08-01T10:40:40;4.33;;;2.10;;
9508;SDS011;4792;50.088;8.122;2023-08-01T10:43:18;3.20;;;1.90;;
9508;SDS011;4792;50.088;8.122;2023-08-01T10:45:47;3.43;;;2.00;;
9508;SDS011;4792;50.088;8.122;2023-08-01T10:48:16;3.43;;;1.83;;
9508;SDS011;4792;50.088;8.122;2023-08-01T10:50:53;4.53;;;1.83;;
9508;SDS011;4792;50.088;8.122;2023-08-01T10:53:21;2.83;;;1.90;;
9508;SDS011;4792;50.088;8.122;2023-08-01T10:55:49;4.27;;;1.97;;
9508;SDS011;4792;50.088;8.122;2023-08-01T10:58:17;4.00;;;2.30;;
9508;SDS011;4792;50.088;8.122;2023-08-01T11:00:45;4.17;;;1.97;;
9508;SDS011;4792;50.088;8.122;2023-08-01T11:03:12;2.80;;;2.03;;
9508;SDS011;4792;50.088;8.122;2023-08-01T11:05:42;2.83;;;2.03;;
9508;SDS011;4792;50.088;8.122;2023-08-01T11:08:10;2.60;;;1.67;;
9508;SDS011;4792;50.088;8.122;2023-08-01T11:10:38;2.80;;;1.93;;
9508;SDS011;4792;50.088;8.122;2023-08-01T11:13:06;3.10;;;1.90;;
9508;SDS011;4792;50.088;8.122;2023-08-01T11:15:36;3.20;;;2.17;;
9508;SDS011;4792;50.088;8.122;2023-08-01T11:18:04;4.63;;;1.90;;
9508;SDS011;4792;50.088;8.122;2023-08-01T11:20:32;5.93;;;2.47;;
9508;SDS011;4792;50.088;8.122;2023-08-01T11:23:07;3.60;;;2.20;;
9508;SDS011;4792;50.088;8.122;2023-08-01T11:25:35;4.03;;;2.20;;
9508;SDS011;4792;50.088;8.122;2023-08-01T11:28:05;1.70;;;1.60;;
9508;SDS011;4792;50.088;8.122;2023-08-01T11:30:34;3.03;;;2.10;;
9508;SDS011;4792;50.088;8.122;2023-08-01T11:33:02;6.00;;;2.40;;
9508;SDS011;4792;50.088;8.122;2023-08-01T11:35:31;2.73;;;2.03;;
9508;SDS011;4792;50.088;8.122;2023-08-01T11:37:59;3.77;;;2.10;;
9508;SDS011;4792;50.088;8.122;2023-08-01T11:40:28;4.10;;;1.60;;
9508;SDS011;4792;50.088;8.122;2023-08-01T11:42:59;2.30;;;1.50;;
9508;SDS011;4792;50.088;8.122;2023-08-01T11:45:26;6.40;;;2.10;;
9508;SDS011;4792;50.088;8.122;2023-08-01T11:47:54;4.23;;;1.90;;
9508;SDS011;4792;50.088;8.122;2023-08-01T11:50:22;3.17;;;1.70;;
9508;SDS011;4792;50.088;8.122;2023-08-01T11:52:51;2.87;;;1.70;;
9508;SDS011;4792;50.088;8.122;2023-08-01T11:55:20;3.87;;;1.97;;
9508;SDS011;4792;50.088;8.122;2023-08-01T11:57:53;2.47;;;1.90;;
9508;SDS011;4792;50.088;8.122;2023-08-01T12:00:22;3.17;;;1.80;;
9508;SDS011;4792;50.088;8.122;2023-08-01T12:02:51;6.00;;;2.00;;
9508;SDS011;4792;50.088;8.122;2023-08-01T12:05:22;3.60;;;2.00;;
9508;SDS011;4792;50.088;8.122;2023-08-01T12:07:50;3.33;;;1.70;;
9508;SDS011;4792;50.088;8.122;2023-08-01T12:10:18;4.73;;;2.20;;
9508;SDS011;4792;50.088;8.122;2023-08-01T12:12:46;4.23;;;2.00;;
9508;SDS011;4792;50.088;8.122;2023-08-01T12:15:16;3.07;;;2.00;;
9508;SDS011;4792;50.088;8.122;2023-08-01T12:17:44;4.23;;;2.00;;
9508;SDS011;4792;50.088;8.122;2023-08-01T12:20:12;7.23;;;2.23;;
9508;SDS011;4792;50.088;8.122;2023-08-01T12:22:40;3.07;;;2.10;;
9508;SDS011;4792;50.088;8.122;2023-08-01T12:25:08;4.10;;;2.10;;
9508;SDS011;4792;50.088;8.122;2023-08-01T12:27:36;4.83;;;2.20;;
9508;SDS011;4792;50.088;8.122;2023-08-01T12:30:04;4.27;;;2.10;;
9508;SDS011;4792;50.088;8.122;2023-08-01T12:32:34;3.93;;;2.20;;
9508;SDS011;4792;50.088;8.122;2023-08-01T12:35:04;5.03;;;2.40;;
9508;SDS011;4792;50.088;8.122;2023-08-01T12:37:32;2.70;;;1.83;;
9508;SDS011;4792;50.088;8.122;2023-08-01T12:40:00;5.10;;;2.27;;
9508;SDS011;4792;50.088;8.122;2023-08-01T12:42:27;3.50;;;2.43;;
9508;SDS011;4792;50.088;8.122;2023-08-01T12:44:55;4.60;;;2.63;;
9508;SDS011;4792;50.088;8.122;2023-08-01T12:47:23;5.40;;;2.13;;
9508;SDS011;4792;50.088;8.122;2023-08-01T12:49:52;6.63;;;2.78;;
9508;SDS011;4792;50.088;8.122;2023-08-01T12:52:24;3.60;;;2.08;;
9508;SDS011;4792;50.088;8.122;2023-08-01T12:54:52;3.57;;;2.27;;
9508;SDS011;4792;50.088;8.122;2023-08-01T12:57:25;3.78;;;1.65;;
9508;SDS011;4792;50.088;8.122;2023-08-01T12:59:56;3.33;;;2.10;;
9508;SDS011;4792;50.088;8.122;2023-08-01T13:02:24;2.53;;;1.60;;
9508;SDS011;4792;50.088;8.122;2023-08-01T13:04:53;2.77;;;1.87;;
9508;SDS011;4792;50.088;8.122;2023-08-01T13:07:21;3.67;;;2.20;;
9508;SDS011;4792;50.088;8.122;2023-08-01T13:09:49;2.87;;;2.00;;
9508;SDS011;4792;50.088;8.122;2023-08-01T13:12:16;3.27;;;2.00;;
9508;SDS011;4792;50.088;8.122;2023-08-01T13:14:44;4.33;;;2.10;;
9508;SDS011;4792;50.088;8.122;2023-08-01T13:17:12;3.07;;;1.70;;
9508;SDS011;4792;50.088;8.122;2023-08-01T13:19:39;3.73;;;2.17;;
9508;SDS011;4792;50.088;8.122;2023-08-01T13:22:08;4.80;;;2.13;;
9508;SDS011;4792;50.088;8.122;2023-08-01T13:24:36;4.20;;;2.20;;
9508;SDS011;4792;50.088;8.122;2023-08-01T13:27:04;4.93;;;1.90;;
9508;SDS011;4792;50.088;8.122;2023-08-01T13:29:35;4.23;;;2.00;;
9508;SDS011;4792;50.088;8.122;2023-08-01T13:32:03;3.23;;;1.87;;
9508;SDS011;4792;50.088;8.122;2023-08-01T13:34:31;5.50;;;2.07;;
9508;SDS011;4792;50.088;8.122;2023-08-01T13:36:59;3.60;;;1.90;;
9508;SDS011;4792;50.088;8.122;2023-08-01T13:39:28;6.63;;;2.53;;
9508;SDS011;4792;50.088;8.122;2023-08-01T13:41:56;4.63;;;2.07;;
9508;SDS011;4792;50.088;8.122;2023-08-01T13:44:24;3.27;;;2.10;;
9508;SDS011;4792;50.088;8.122;2023-08-01T13:46:51;3.30;;;1.60;;
9508;SDS011;4792;50.088;8.122;2023-08-01T13:49:20;1.70;;;1.50;;
9508;SDS011;4792;50.088;8.122;2023-08-01T13:51:48;1.67;;;1.57;;
9508;SDS011;4792;50.088;8.122;2023-08-01T13:54:15;2.37;;;2.00;;
9508;SDS011;4792;50.088;8.122;2023-08-01T13:56:44;3.00;;;1.57;;
9508;SDS011;4792;50.088;8.122;2023-08-01T13:59:12;5.57;;;1.70;;
9508;SDS011;4792;50.088;8.122;2023-08-01T14:01:40;1.97;;;1.70;;
9508;SDS011;4792;50.088;8.122;2023-08-01T14:04:08;3.73;;;1.80;;
9508;SDS011;4792;50.088;8.122;2023-08-01T14:06:36;4.60;;;1.97;;
9508;SDS011;4792;50.088;8.122;2023-08-01T14:09:03;4.13;;;2.20;;
9508;SDS011;4792;50.088;8.122;2023-08-01T14:11:31;3.13;;;1.90;;
9508;SDS011;4792;50.088;8.122;2023-08-01T14:14:00;3.87;;;2.00;;
9508;SDS011;4792;50.088;8.122;2023-08-01T14:16:28;3.20;;;2.00;;
9508;SDS011;4792;50.088;8.122;2023-08-01T14:18:56;3.30;;;1.80;;
9508;SDS011;4792;50.088;8.122;2023-08-01T14:21:24;3.77;;;2.10;;
9508;SDS011;4792;50.088;8.122;2023-08-01T14:23:51;3.13;;;2.03;;
9508;SDS011;4792;50.088;8.122;2023-08-01T14:26:19;2.07;;;1.80;;
9508;SDS011;4792;50.088;8.122;2023-08-01T14:28:47;4.00;;;1.77;;
9508;SDS011;4792;50.088;8.122;2023-08-01T14:31:17;3.47;;;1.80;;
9508;SDS011;4792;50.088;8.122;2023-08-01T14:33:45;3.87;;;1.90;;
9508;SDS011;4792;50.088;8.122;2023-08-01T14:36:13;3.47;;;1.67;;
9508;SDS011;4792;50.088;8.122;2023-08-01T14:38:41;3.37;;;2.00;;
9508;SDS011;4792;50.088;8.122;2023-08-01T14:41:08;3.40;;;1.57;;
9508;SDS011;4792;50.088;8.122;2023-08-01T14:43:56;2.37;;;1.50;;
9508;SDS011;4792;50.088;8.122;2023-08-01T14:46:25;1.77;;;1.50;;
9508;SDS011;4792;50.088;8.122;2023-08-01T14:48:55;2.97;;;1.53;;
9508;SDS011;4792;50.088;8.122;2023-08-01T14:51:23;2.83;;;1.50;;
9508;SDS011;4792;50.088;8.122;2023-08-01T14:53:51;4.53;;;1.67;;
9508;SDS011;4792;50.088;8.122;2023-08-01T14:56:18;3.43;;;1.50;;
9508;SDS011;4792;50.088;8.122;2023-08-01T14:58:46;3.00;;;1.67;;
9508;SDS011;4792;50.088;8.122;2023-08-01T15:01:14;2.73;;;1.40;;
9508;SDS011;4792;50.088;8.122;2023-08-01T15:03:44;3.23;;;1.70;;
9508;SDS011;4792;50.088;8.122;2023-08-01T15:06:12;2.63;;;1.63;;
9508;SDS011;4792;50.088;8.122;2023-08-01T15:08:41;2.57;;;1.60;;
9508;SDS011;4792;50.088;8.122;2023-08-01T15:11:09;3.17;;;2.00;;
9508;SDS011;4792;50.088;8.122;2023-08-01T15:13:37;4.13;;;1.83;;